Time;durP1;ratioP1;P1;durP2;ratioP2;P2;SDS_P1;SDS_P2;PMS_P1;PMS_P2;Temp;Humidity;BMP_temperature;BMP_pressure;BME280_temperature;BME280_humidity;BME280_pressure;Samples;Min_cycle;Max_cycle;Signal;HPM_P1;HPM_P2
2022/04/22 00:02:00;;;;;;;13.88;5.25;;;;;;;14.03;57.20;101511.45;1633931;88;21068;-64
2022/04/22 00:04:27;;;;;;;10.38;5.00;;;;;;;14.01;57.23;101513.25;1633863;88;21013;-64
2022/04/22 00:06:55;;;;;;;11.20;5.12;;;;;;;13.99;57.28;101512.42;1634006;88;21082;-64
2022/04/22 00:09:23;;;;;;;10.78;4.80;;;;;;;13.99;57.38;101519.41;1634171;88;21637;-65
2022/04/22 00:11:49;;;;;;;10.98;4.97;;;;;;;13.97;57.44;101515.97;1634251;88;21065;-64
2022/04/22 00:14:17;;;;;;;12.90;5.05;;;;;;;13.97;57.48;101515.52;1634201;88;21556;-64
2022/04/22 00:16:44;;;;;;;8.68;5.25;;;;;;;13.96;57.55;101513.79;1634322;86;21064;-65
2022/04/22 00:19:11;;;;;;;7.22;4.60;;;;;;;13.96;57.54;101517.71;1634320;88;21076;-64
2022/04/22 00:21:41;;;;;;;11.93;5.30;;;;;;;13.98;57.62;101513.30;1634047;88;21072;-65
2022/04/22 00:24:07;;;;;;;20.75;6.03;;;;;;;13.99;57.59;101512.86;1634096;88;21088;-64
2022/04/22 00:26:35;;;;;;;12.03;5.25;;;;;;;13.99;57.69;101508.50;1634151;88;21025;-64
2022/04/22 00:29:02;;;;;;;17.92;5.30;;;;;;;13.98;57.69;101508.07;1634250;88;21481;-64
2022/04/22 00:31:30;;;;;;;14.18;5.22;;;;;;;14.00;57.76;101506.27;1622721;88;21025;-64
2022/04/22 00:33:56;;;;;;;10.85;5.92;;;;;;;14.01;57.79;101505.39;1634149;87;21112;-65
2022/04/22 00:36:25;;;;;;;12.00;5.55;;;;;;;14.02;57.75;101510.16;1634255;88;21560;-64
2022/04/22 00:38:53;;;;;;;14.90;5.35;;;;;;;14.02;57.80;101508.41;1634029;88;21068;-65
2022/04/22 00:41:22;;;;;;;13.65;6.33;;;;;;;14.03;57.80;101507.97;1631585;88;21111;-64
2022/04/22 00:43:50;;;;;;;10.75;5.55;;;;;;;14.01;57.82;101507.14;1681161;83;21053;-64
2022/04/22 00:46:18;;;;;;;11.22;5.50;;;;;;;14.02;57.88;101501.86;1724217;83;21070;-64
2022/04/22 00:48:45;;;;;;;13.85;5.47;;;;;;;14.00;57.84;101508.89;1724093;83;21044;-64
2022/04/22 00:51:13;;;;;;;10.20;5.33;;;;;;;13.99;57.91;101503.70;1724407;83;21014;-64
2022/04/22 00:53:42;;;;;;;10.53;5.60;;;;;;;13.97;58.05;101502.88;1724260;83;21138;-64
2022/04/22 00:58:43;;;;;;;9.73;5.30;;;;;;;13.94;58.08;101498.58;1696562;83;21023;-64
2022/04/22 01:01:11;;;;;;;10.53;5.20;;;;;;;13.92;58.13;101505.60;1696783;84;21504;-64
2022/04/22 01:03:39;;;;;;;11.40;5.45;;;;;;;13.89;58.22;101501.30;1696757;84;21055;-64
2022/04/22 01:11:39;;;;;;;13.20;5.37;;;;;;;13.85;58.27;101504.01;1696539;84;21015;-65
2022/04/22 01:14:08;;;;;;;10.90;5.37;;;;;;;13.84;58.36;101507.53;1696882;84;21023;-64
2022/04/22 01:16:34;;;;;;;12.80;5.97;;;;;;;13.83;58.32;101500.57;1697006;84;21075;-65
2022/04/22 01:19:01;;;;;;;10.80;5.33;;;;;;;13.83;58.42;101504.49;1696466;84;21567;-65
2022/04/22 01:21:30;;;;;;;13.25;5.33;;;;;;;13.81;58.48;101499.30;1696707;83;21059;-64
2022/04/22 01:23:57;;;;;;;10.78;5.50;;;;;;;13.80;58.52;101496.73;1696807;84;21075;-64
2022/04/22 01:26:25;;;;;;;8.85;5.20;;;;;;;13.80;58.57;101501.97;1696456;84;21079;-66
2022/04/22 01:28:52;;;;;;;11.48;5.87;;;;;;;13.80;58.57;101505.89;1684662;84;21083;-65
2022/04/22 01:31:22;;;;;;;11.95;5.67;;;;;;;13.78;58.69;101505.94;1696550;84;21075;-63
2022/04/22 01:33:49;;;;;;;14.53;5.20;;;;;;;13.80;58.78;101509.81;1696757;84;21078;-64
2022/04/22 01:36:16;;;;;;;14.45;5.60;;;;;;;13.78;58.74;101502.45;1696840;83;21063;-65
2022/04/22 01:38:44;;;;;;;10.63;5.37;;;;;;;13.78;58.87;101505.06;1694096;84;21011;-65
2022/04/22 01:41:11;;;;;;;12.13;4.75;;;;;;;13.78;58.89;101502.45;1696732;84;21058;-64
2022/04/22 01:43:40;;;;;;;17.55;5.67;;;;;;;13.78;58.91;101503.31;1694553;84;21126;-65
2022/04/22 01:46:06;;;;;;;8.23;5.20;;;;;;;13.78;58.93;101508.55;1667092;86;21049;-65
2022/04/22 01:48:35;;;;;;;10.45;5.55;;;;;;;13.78;58.94;101502.45;1667143;86;21036;-65
2022/04/22 01:51:02;;;;;;;14.83;5.35;;;;;;;13.77;58.95;101508.56;1667086;86;21142;-65
2022/04/22 01:53:30;;;;;;;10.72;5.85;;;;;;;13.74;59.08;101514.75;1667191;86;21088;-65
2022/04/22 01:55:57;;;;;;;11.38;5.62;;;;;;;13.74;59.09;101506.90;1689175;84;21006;-65
2022/04/22 01:58:25;;;;;;;7.70;5.05;;;;;;;13.73;59.13;101501.68;1697503;83;21510;-66
2022/04/22 02:00:53;;;;;;;11.57;5.42;;;;;;;13.73;59.15;101504.30;1661322;86;21581;-65
2022/04/22 02:03:22;;;;;;;8.68;5.15;;;;;;;13.73;59.16;101506.91;1649662;86;20990;-65
2022/04/22 02:05:50;;;;;;;10.78;5.65;;;;;;;13.73;59.10;101510.84;1661552;86;21048;-65
2022/04/22 02:08:19;;;;;;;16.25;6.12;;;;;;;13.73;59.14;101508.22;1661486;86;21025;-65
2022/04/22 02:10:46;;;;;;;12.10;5.08;;;;;;;13.72;59.13;101506.05;1661557;86;21037;-64
2022/04/22 02:13:13;;;;;;;11.43;5.20;;;;;;;13.74;59.02;101512.57;1661661;86;21068;-65
2022/04/22 02:15:41;;;;;;;10.10;5.60;;;;;;;13.73;59.12;101514.31;1661442;86;21078;-63
2022/04/22 02:18:07;;;;;;;14.38;6.75;;;;;;;13.74;59.10;101516.05;1649794;86;21029;-67
2022/04/22 02:20:34;;;;;;;12.55;5.65;;;;;;;13.74;59.12;101516.50;1661279;85;21076;-65
2022/04/22 02:23:02;;;;;;;18.05;6.40;;;;;;;13.75;59.16;101522.98;1661418;86;21021;-66
2022/04/22 02:25:29;;;;;;;13.35;5.85;;;;;;;13.76;59.16;101519.94;1661550;85;21554;-65
2022/04/22 02:30:43;;;;;;;12.05;5.65;;;;;;;13.79;59.07;101527.70;1661432;86;21057;-66
2022/04/22 02:33:10;;;;;;;11.10;5.80;;;;;;;13.80;59.13;101532.05;1661528;86;21096;-65
2022/04/22 02:35:39;;;;;;;17.77;6.72;;;;;;;13.81;59.06;101532.00;1661376;86;21494;-66
2022/04/22 02:38:05;;;;;;;12.95;5.95;;;;;;;13.83;58.96;101533.27;1661358;86;21037;-63
2022/04/22 02:46:05;;;;;;;14.50;6.85;;;;;;;13.85;58.90;101540.63;1680219;85;22253;-66
2022/04/22 02:48:32;;;;;;;11.18;5.85;;;;;;;13.84;58.99;101544.16;1654985;87;21098;-66
2022/04/22 02:51:01;;;;;;;13.53;7.03;;;;;;;13.83;58.97;101539.81;1666897;86;21067;-66
2022/04/22 02:53:27;;;;;;;15.50;6.30;;;;;;;13.82;58.93;101541.59;1655303;87;21087;-65
2022/04/22 02:55:53;;;;;;;16.37;7.05;;;;;;;13.82;58.88;101547.26;1654708;87;21046;-66
2022/04/22 02:58:21;;;;;;;11.65;5.58;;;;;;;13.82;58.90;101549.88;1654876;87;21058;-66
2022/04/22 03:00:47;;;;;;;13.58;6.47;;;;;;;13.83;58.89;101555.50;1667265;86;21535;-66
2022/04/22 03:03:14;;;;;;;15.90;6.22;;;;;;;13.84;58.82;101553.32;1654888;87;21054;-66
2022/04/22 03:05:41;;;;;;;15.35;5.58;;;;;;;13.84;58.80;101558.55;1654815;87;21054;-66
2022/04/22 03:08:08;;;;;;;13.70;6.62;;;;;;;13.84;58.81;101566.40;1655367;86;21054;-66
2022/04/22 03:10:37;;;;;;;15.38;5.87;;;;;;;13.84;58.80;101562.47;1666984;86;21066;-66
2022/04/22 03:13:06;;;;;;;9.05;5.28;;;;;;;13.83;58.82;101565.97;1667256;85;21055;-65
2022/04/22 03:15:35;;;;;;;14.60;5.75;;;;;;;13.81;58.90;101563.83;1667273;85;21507;-66
2022/04/22 03:18:02;;;;;;;10.05;5.58;;;;;;;13.81;58.96;101565.14;1667086;86;21055;-66
2022/04/22 03:20:29;;;;;;;10.58;5.53;;;;;;;13.81;58.99;101563.83;1667310;86;21124;-66
2022/04/22 03:22:56;;;;;;;13.85;6.30;;;;;;;13.82;59.08;101569.50;1655065;87;21117;-65
2022/04/22 03:25:24;;;;;;;12.25;5.92;;;;;;;13.83;58.99;101576.43;1655084;87;21034;-66
2022/04/22 03:27:52;;;;;;;10.93;5.55;;;;;;;13.84;58.99;101576.42;1654891;87;21066;-65
2022/04/22 03:30:19;;;;;;;9.70;5.97;;;;;;;13.84;58.96;101574.25;1667021;86;21036;-65
2022/04/22 03:32:45;;;;;;;12.07;6.50;;;;;;;13.87;59.08;101580.70;1654934;86;21085;-66
2022/04/22 03:35:12;;;;;;;14.03;5.97;;;;;;;13.86;59.08;101584.23;1654920;86;21050;-66
2022/04/22 03:37:42;;;;;;;13.18;5.40;;;;;;;13.88;59.02;101585.92;1684144;85;21018;-65
2022/04/22 03:40:10;;;;;;;13.32;6.10;;;;;;;13.88;59.09;101585.05;1683737;85;21026;-65
2022/04/22 03:42:37;;;;;;;9.83;5.00;;;;;;;13.89;59.12;101586.77;1684175;85;21026;-65
2022/04/22 03:45:05;;;;;;;14.45;5.53;;;;;;;13.91;59.15;101596.74;1685110;85;21042;-65
2022/04/22 03:47:34;;;;;;;10.08;5.03;;;;;;;13.92;59.21;101584.09;1686820;85;21562;-66
2022/04/22 03:50:01;;;;;;;15.03;4.90;;;;;;;13.92;59.42;101583.22;1667200;86;21059;-65
2022/04/22 03:52:29;;;;;;;8.25;4.53;;;;;;;13.92;59.36;101584.53;1667240;85;21043;-66
2022/04/22 03:54:58;;;;;;;10.63;5.47;;;;;;;13.90;59.50;101579.34;1661802;86;21028;-65
2022/04/22 04:00:12;;;;;;;10.48;5.40;;;;;;;13.91;59.59;101580.20;1666975;85;21107;-65
2022/04/22 04:02:40;;;;;;;11.90;5.33;;;;;;;13.92;59.71;101574.06;1667243;86;21058;-65
2022/04/22 04:05:10;;;;;;;11.08;5.28;;;;;;;13.91;59.71;101573.67;1667197;85;21084;-65
2022/04/22 04:07:38;;;;;;;11.45;5.50;;;;;;;13.91;59.80;101577.13;1667574;85;21052;-65
2022/04/22 04:15:59;;;;;;;8.55;5.37;;;;;;;13.91;59.95;101578.42;1667162;85;21040;-65
2022/04/22 04:18:29;;;;;;;9.20;4.65;;;;;;;13.90;59.97;101566.27;1667484;86;21055;-65
2022/04/22 04:23:43;;;;;;;10.10;4.72;;;;;;;13.94;59.90;101577.51;1664500;86;21091;-65
2022/04/22 04:26:12;;;;;;;10.30;5.12;;;;;;;13.94;59.85;101577.06;1667256;86;21073;-64
2022/04/22 04:28:40;;;;;;;9.93;4.67;;;;;;;13.94;59.84;101574.45;1667245;85;21055;-65
2022/04/22 04:31:08;;;;;;;13.10;4.90;;;;;;;13.93;59.78;101576.64;1667411;85;21067;-65
2022/04/22 04:33:36;;;;;;;6.30;5.33;;;;;;;13.93;59.84;101581.88;1667377;85;21563;-65
2022/04/22 04:36:06;;;;;;;8.38;4.22;;;;;;;13.94;59.91;101581.43;1667569;85;21078;-64
2022/04/22 04:38:33;;;;;;;8.40;5.17;;;;;;;13.93;59.95;101574.02;1638753;87;21535;-65
2022/04/22 04:41:01;;;;;;;12.78;5.42;;;;;;;13.95;59.98;101576.16;1638590;87;21044;-65
2022/04/22 04:43:28;;;;;;;11.95;5.85;;;;;;;13.95;59.96;101573.54;1638249;87;21594;-65
2022/04/22 04:45:57;;;;;;;7.72;4.67;;;;;;;13.97;59.88;101574.40;1634674;87;21086;-64
2022/04/22 04:48:24;;;;;;;10.03;4.80;;;;;;;13.98;59.85;101576.54;1632551;88;21058;-65
2022/04/22 04:50:54;;;;;;;9.20;5.00;;;;;;;13.98;59.82;101574.80;1632674;88;21062;-64
2022/04/22 04:53:21;;;;;;;9.10;4.70;;;;;;;13.99;59.81;101578.28;1632942;88;21062;-64
2022/04/22 04:55:50;;;;;;;11.55;4.97;;;;;;;13.99;59.84;101573.91;1632662;88;21090;-65
2022/04/22 04:58:17;;;;;;;10.00;4.90;;;;;;;14.00;59.86;101576.05;1632982;88;21101;-65
2022/04/22 05:03:13;;;;;;;8.45;4.72;;;;;;;14.02;59.86;101569.90;1565590;92;21105;-65
2022/04/22 05:05:40;;;;;;;11.80;4.50;;;;;;;14.03;59.84;101580.80;1578815;90;21125;-65
2022/04/22 05:08:08;;;;;;;15.45;5.65;;;;;;;14.06;59.80;101586.39;1578840;91;21055;-64
2022/04/22 05:10:35;;;;;;;11.88;4.90;;;;;;;14.08;59.88;101584.16;1578691;90;21098;-65
2022/04/22 05:13:04;;;;;;;13.40;4.87;;;;;;;14.12;59.86;101584.94;1578976;91;21094;-64
2022/04/22 05:15:32;;;;;;;13.98;5.47;;;;;;;14.16;59.84;101595.30;1571354;91;21078;-64
2022/04/22 05:20:32;;;;;;;13.53;6.03;;;;;;;14.24;59.73;101593.36;1555742;91;21088;-64
2022/04/22 05:23:00;;;;;;;9.30;4.60;;;;;;;14.24;59.75;101590.75;1555878;92;21088;-64
2022/04/22 05:25:27;;;;;;;11.08;4.87;;;;;;;14.27;59.59;101585.45;1553404;92;21095;-65
2022/04/22 05:27:56;;;;;;;12.47;4.80;;;;;;;14.37;59.40;101593.97;1555557;91;21641;-64
2022/04/22 05:33:07;;;;;;;13.22;5.12;;;;;;;14.47;59.17;101590.23;1555790;92;21076;-64
2022/04/22 05:35:36;;;;;;;8.15;4.67;;;;;;;14.45;59.34;101591.59;1568161;91;21068;-64
2022/04/22 05:38:05;;;;;;;9.80;5.30;;;;;;;14.60;58.99;101591.22;1575339;91;21032;-64
2022/04/22 05:40:34;;;;;;;12.35;5.10;;;;;;;14.75;58.75;101589.11;1582290;91;21024;-64
2022/04/22 05:43:03;;;;;;;10.28;5.00;;;;;;;14.92;58.27;101589.54;1593662;90;21031;-63
2022/04/22 05:45:32;;;;;;;9.40;5.37;;;;;;;15.11;57.89;101585.50;1594224;90;21181;-63
2022/04/22 05:47:59;;;;;;;8.00;4.97;;;;;;;15.30;57.46;101589.34;1594975;90;21098;-64
2022/04/22 05:50:28;;;;;;;8.33;4.35;;;;;;;15.44;56.95;101595.96;1595057;90;21090;-64
2022/04/22 05:52:56;;;;;;;10.82;5.33;;;;;;;15.58;56.58;101592.09;1584613;89;21127;-63
2022/04/22 05:55:28;;;;;;;5.60;4.30;;;;;;;15.72;56.25;101592.10;1595114;90;21186;-64
2022/04/22 05:57:56;;;;;;;7.33;4.50;;;;;;;15.85;55.85;101589.50;1595424;90;21031;-63
2022/04/22 06:00:27;;;;;;;8.58;4.83;;;;;;;15.99;55.49;101595.19;1601323;89;21573;-64
2022/04/22 06:02:58;;;;;;;12.58;5.05;;;;;;;16.12;55.02;101597.84;1665730;86;21148;-64
2022/04/22 06:05:25;;;;;;;7.33;4.05;;;;;;;16.21;54.60;101598.89;1665496;86;21529;-62
2022/04/22 06:10:40;;;;;;;8.45;4.28;;;;;;;16.30;54.29;101614.33;1665431;86;21097;-63
2022/04/22 06:13:08;;;;;;;10.72;4.72;;;;;;;16.36;53.97;101615.93;1665568;86;21014;-64
2022/04/22 06:15:37;;;;;;;9.20;4.58;;;;;;;16.39;53.97;101624.14;1665368;86;21046;-63
2022/04/22 06:18:06;;;;;;;6.35;4.22;;;;;;;16.42;53.84;101630.63;1710983;83;21038;-63
2022/04/22 06:20:34;;;;;;;11.80;4.70;;;;;;;16.44;53.65;101628.36;1720930;83;21022;-64
2022/04/22 06:23:01;;;;;;;9.48;4.80;;;;;;;16.47;53.70;101626.93;1704916;83;21029;-63
2022/04/22 06:25:30;;;;;;;9.70;4.40;;;;;;;16.50;53.46;101633.89;1720775;83;21546;-64
2022/04/22 06:27:58;;;;;;;7.35;4.30;;;;;;;16.51;53.35;101632.97;1720675;83;21058;-64
2022/04/22 06:30:26;;;;;;;10.78;4.65;;;;;;;16.50;53.37;101636.52;1718449;83;21034;-64
2022/04/22 06:32:55;;;;;;;9.80;5.00;;;;;;;16.51;53.36;101640.85;1720751;83;21092;-63
2022/04/22 06:35:23;;;;;;;9.55;4.55;;;;;;;16.52;53.29;101643.45;1720781;83;21549;-64
2022/04/22 06:37:52;;;;;;;11.03;4.40;;;;;;;16.52;53.14;101646.53;1720816;83;21038;-64
2022/04/22 06:45:55;;;;;;;11.40;4.30;;;;;;;16.40;53.32;101650.83;1721911;83;21058;-64
2022/04/22 06:48:30;;;;;;;17.52;5.15;;;;;;;16.34;53.52;101645.77;1723559;83;21034;-63
2022/04/22 06:50:57;;;;;;;10.25;4.30;;;;;;;16.33;53.63;101643.59;1723444;83;21029;-63
2022/04/22 06:53:25;;;;;;;11.65;5.15;;;;;;;16.34;53.70;101658.45;1723739;83;21049;-63
2022/04/22 06:55:53;;;;;;;10.78;4.45;;;;;;;16.35;53.60;101664.55;1723815;83;21052;-64
2022/04/22 06:58:21;;;;;;;11.73;4.42;;;;;;;16.36;53.59;101675.47;1723648;83;21066;-64
2022/04/22 07:00:50;;;;;;;12.95;4.75;;;;;;;16.34;53.47;101673.34;1723523;83;21542;-64
2022/04/22 07:03:17;;;;;;;8.80;4.30;;;;;;;16.32;53.51;101672.53;1723769;83;21530;-64
2022/04/22 07:05:47;;;;;;;11.83;4.55;;;;;;;16.27;53.48;101677.48;1686899;85;21072;-63
2022/04/22 07:08:17;;;;;;;8.05;4.28;;;;;;;16.24;53.53;101679.31;1667447;86;21134;-64
2022/04/22 07:10:45;;;;;;;7.72;4.15;;;;;;;16.18;53.59;101671.63;1667302;86;21061;-63
2022/04/22 07:13:16;;;;;;;11.70;4.45;;;;;;;16.12;53.63;101663.48;1661389;86;21544;-64
2022/04/22 07:15:48;;;;;;;11.43;4.47;;;;;;;16.06;53.85;101659.73;1667315;86;21086;-64
2022/04/22 07:18:17;;;;;;;13.08;5.45;;;;;;;16.02;53.99;101665.12;1667496;86;21476;-64
2022/04/22 07:20:46;;;;;;;9.93;4.70;;;;;;;15.98;54.21;101672.23;1667336;85;21031;-64
2022/04/22 07:23:14;;;;;;;9.30;5.35;;;;;;;15.95;54.20;101672.30;1667629;86;21073;-64
2022/04/22 07:25:45;;;;;;;9.23;4.47;;;;;;;15.94;54.36;101683.73;1667432;85;21087;-63
2022/04/22 07:28:14;;;;;;;11.45;4.70;;;;;;;15.92;54.40;101680.28;1667696;86;21072;-65
2022/04/22 07:30:46;;;;;;;12.35;5.00;;;;;;;15.91;54.55;101685.11;1667680;86;21062;-64
2022/04/22 07:33:11;;;;;;;13.40;5.70;;;;;;;15.92;54.62;101676.80;1663619;85;21079;-64
2022/04/22 07:35:40;;;;;;;11.88;4.80;;;;;;;15.92;54.62;101674.17;1637790;87;21579;-64
2022/04/22 07:38:10;;;;;;;9.40;5.00;;;;;;;15.94;54.65;101678.48;1662737;86;21050;-62
2022/04/22 07:40:42;;;;;;;8.38;4.50;;;;;;;15.97;54.74;101682.31;1667473;85;21063;-64
2022/04/22 07:48:41;;;;;;;12.35;4.55;;;;;;;16.15;54.46;101671.73;1651274;86;21059;-63
2022/04/22 07:51:07;;;;;;;10.68;4.87;;;;;;;16.20;54.12;101675.93;1661623;86;21100;-63
2022/04/22 07:53:36;;;;;;;7.80;4.12;;;;;;;16.25;54.06;101679.30;1661541;84;21024;-63
2022/04/22 07:56:03;;;;;;;9.13;5.10;;;;;;;16.28;54.06;101679.18;1661702;86;21616;-63
2022/04/22 07:58:32;;;;;;;11.00;4.42;;;;;;;16.33;54.03;101680.80;1661489;86;21095;-63
2022/04/22 08:01:01;;;;;;;11.63;4.58;;;;;;;16.38;53.97;101676.28;1661605;86;21035;-63
2022/04/22 08:03:31;;;;;;;12.93;4.35;;;;;;;16.44;53.90;101680.03;1655660;86;21024;-64
2022/04/22 08:05:58;;;;;;;8.28;4.30;;;;;;;16.50;53.57;101683.81;1661980;86;21060;-63
2022/04/22 08:08:28;;;;;;;10.15;4.95;;;;;;;16.56;53.39;101684.93;1661849;84;21059;-63
2022/04/22 08:10:57;;;;;;;15.03;6.17;;;;;;;16.61;53.31;101683.03;1661937;86;21059;-63
2022/04/22 08:13:26;;;;;;;13.48;5.40;;;;;;;16.66;53.34;101687.67;1661543;86;21059;-64
2022/04/22 08:15:53;;;;;;;9.13;4.58;;;;;;;16.72;53.10;101684.84;1661626;86;21045;-62
2022/04/22 08:18:22;;;;;;;9.05;4.30;;;;;;;16.77;52.98;101693.45;1661710;85;21586;-62
2022/04/22 08:20:50;;;;;;;11.45;4.45;;;;;;;16.83;52.85;101688.00;1661526;84;21040;-63
2022/04/22 08:23:21;;;;;;;8.90;4.33;;;;;;;16.87;52.64;101684.36;1662046;86;21095;-62
2022/04/22 08:25:48;;;;;;;9.53;4.08;;;;;;;16.93;52.69;101681.52;1661493;86;21044;-63
2022/04/22 08:28:15;;;;;;;12.37;4.87;;;;;;;16.98;52.55;101677.81;1661524;86;21040;-62
2022/04/22 08:30:42;;;;;;;8.08;3.60;;;;;;;17.02;52.20;101681.23;1661691;86;21059;-62
2022/04/22 08:33:12;;;;;;;10.85;3.90;;;;;;;17.04;52.00;101674.15;1661390;84;21056;-63
2022/04/22 08:35:39;;;;;;;10.95;4.15;;;;;;;17.02;51.89;101678.59;1661564;86;21059;-62
2022/04/22 08:38:08;;;;;;;13.25;4.75;;;;;;;17.02;52.04;101670.70;1661574;84;21052;-62
2022/04/22 08:40:37;;;;;;;9.63;4.20;;;;;;;17.03;51.87;101676.36;1661458;86;21540;-62
2022/04/22 08:43:06;;;;;;;7.35;3.85;;;;;;;17.05;51.76;101662.25;1661696;86;21027;-63
2022/04/22 08:45:35;;;;;;;10.98;3.98;;;;;;;17.05;51.75;101666.20;1661838;85;21119;-63
2022/04/22 08:53:26;;;;;;;6.90;3.95;;;;;;;16.97;51.75;101676.56;1597602;89;21506;-62
2022/04/22 08:55:57;;;;;;;6.97;4.05;;;;;;;16.95;51.74;101679.70;1594479;88;21106;-64
2022/04/22 08:58:26;;;;;;;9.05;3.83;;;;;;;16.94;51.85;101683.22;1596046;89;21578;-63
2022/04/22 09:05:56;;;;;;;9.40;4.70;;;;;;;16.93;51.77;101673.63;1470349;97;21653;-64
2022/04/22 09:08:30;;;;;;;8.55;4.12;;;;;;;16.92;51.74;101674.08;1471612;97;21095;-63
2022/04/22 09:11:00;;;;;;;9.20;4.62;;;;;;;16.91;51.75;101674.14;1472893;97;21082;-63
2022/04/22 09:13:32;;;;;;;9.85;3.90;;;;;;;16.95;51.54;101677.07;1468111;97;21078;-64
2022/04/22 09:15:59;;;;;;;6.67;3.62;;;;;;;16.92;51.58;101665.33;1471844;97;21093;-63
2022/04/22 09:18:30;;;;;;;10.25;4.00;;;;;;;16.89;51.64;101672.02;1471173;95;21134;-64
2022/04/22 09:21:01;;;;;;;11.30;4.92;;;;;;;16.86;51.74;101684.80;1471206;97;21125;-63
2022/04/22 09:23:34;;;;;;;;;;;;;;;16.86;51.72;101682.62;1472845;97;21182;-64
2022/04/22 09:26:04;;;;;;;9.58;4.70;;;;;;;16.85;51.61;101688.36;1471195;97;20125;-64
2022/04/22 09:28:34;;;;;;;8.28;4.00;;;;;;;16.82;51.73;101689.75;1471044;97;21111;-64
2022/04/22 09:31:04;;;;;;;7.08;4.15;;;;;;;16.82;51.75;101696.77;1471385;97;21107;-64
2022/04/22 09:33:44;;;;;;;13.13;4.03;;;;;;;16.82;51.71;101690.20;1468709;97;21131;-63
2022/04/22 09:45:08;;;;;;;8.63;3.90;;;;;;;16.77;51.73;101686.88;1471111;97;21196;-63
2022/04/22 09:47:37;;;;;;;11.22;4.12;;;;;;;16.76;51.76;101687.77;1471163;97;21158;-62
2022/04/22 09:50:10;;;;;;;12.07;4.65;;;;;;;16.73;51.73;101689.20;1471155;97;21123;-63
2022/04/22 09:52:43;;;;;;;8.70;3.67;;;;;;;16.70;51.72;101687.53;1470531;97;21622;-63
2022/04/22 09:55:09;;;;;;;7.62;3.55;;;;;;;16.70;51.70;101682.72;1472513;97;21687;-63
2022/04/22 09:57:58;;;;;;;11.12;3.62;;;;;;;16.67;51.72;101686.30;1498743;95;21103;-63
2022/04/22 10:00:27;;;;;;;11.55;4.67;;;;;;;16.67;51.71;101686.78;1503869;95;21138;-63
2022/04/22 10:02:56;;;;;;;11.20;3.90;;;;;;;16.64;51.73;101681.60;1558788;89;21048;-63
2022/04/22 10:05:28;;;;;;;12.40;4.20;;;;;;;16.66;51.98;101690.30;1605667;89;21132;-63
2022/04/22 10:07:57;;;;;;;11.10;4.12;;;;;;;16.66;51.94;101691.61;1684998;85;21031;-63
2022/04/22 10:10:42;;;;;;;11.88;3.75;;;;;;;16.69;51.94;101688.90;1667121;86;21029;-63
2022/04/22 10:13:17;;;;;;;11.28;4.00;;;;;;;16.73;51.82;101694.46;1667334;85;21052;-63
2022/04/22 10:15:45;;;;;;;8.98;4.17;;;;;;;16.76;51.71;101697.84;1667237;85;21047;-64
2022/04/22 10:18:14;;;;;;;11.88;4.83;;;;;;;16.77;51.52;101703.97;1667257;85;21047;-63
2022/04/22 10:20:43;;;;;;;11.05;4.58;;;;;;;16.75;51.59;101700.53;1642866;86;21131;-64
2022/04/22 10:23:10;;;;;;;10.72;4.80;;;;;;;16.72;51.61;101705.42;1667251;85;21051;-63
2022/04/22 10:25:39;;;;;;;8.65;3.77;;;;;;;16.72;51.60;101705.87;1667102;86;21059;-63
2022/04/22 10:28:09;;;;;;;9.33;4.22;;;;;;;16.71;51.63;101713.36;1667244;85;21043;-63
2022/04/22 10:30:41;;;;;;;13.47;5.07;;;;;;;16.69;51.67;101715.18;1663598;85;21047;-64
2022/04/22 10:33:11;;;;;;;7.80;3.92;;;;;;;16.67;51.66;101715.20;1667322;85;21023;-64
2022/04/22 10:35:42;;;;;;;9.45;4.03;;;;;;;16.68;51.65;101712.13;1661433;86;21602;-64
2022/04/22 10:38:34;;;;;;;8.53;3.85;;;;;;;16.67;51.79;101720.94;1667479;86;21034;-65
2022/04/22 10:41:03;;;;;;;8.73;3.52;;;;;;;16.69;51.79;101716.49;1667074;86;21523;-64
2022/04/22 10:43:30;;;;;;;8.10;3.70;;;;;;;16.69;51.89;101705.98;1667214;86;21067;-62
2022/04/22 10:48:40;;;;;;;;;;;;;;;16.75;51.91;101700.53;1639161;87;21601;-64
2022/04/22 10:51:09;;;;;;;12.63;4.12;;;;;;;16.77;51.73;101689.06;1673026;85;20139;-64
2022/04/22 10:53:48;;;;;;;10.32;4.60;;;;;;;16.79;51.80;101689.00;1676591;85;21078;-63
2022/04/22 10:56:30;;;;;;;11.97;4.50;;;;;;;16.83;51.70;101690.63;1676402;85;21501;-63
2022/04/22 10:59:27;;;;;;;10.95;4.28;;;;;;;16.87;51.74;101705.38;1671128;85;21484;-65
2022/04/22 11:01:56;;;;;;;10.23;4.28;;;;;;;16.91;51.63;101710.95;1674031;85;21064;-64
2022/04/22 11:04:28;;;;;;;8.05;4.10;;;;;;;16.92;51.36;101717.45;1676776;85;21040;-63
2022/04/22 11:06:54;;;;;;;8.83;3.83;;;;;;;16.92;51.40;101708.70;1595467;89;21566;-63
2022/04/22 11:09:29;;;;;;;6.78;3.80;;;;;;;16.89;51.50;101708.37;1603533;89;21094;-63
2022/04/22 11:11:59;;;;;;;10.50;3.92;;;;;;;16.87;51.49;101698.36;1589614;89;21529;-63
2022/04/22 11:14:31;;;;;;;11.75;4.47;;;;;;;16.86;51.50;101695.77;1593864;88;21093;-63
2022/04/22 11:17:31;;;;;;;12.13;3.62;;;;;;;16.84;51.41;101694.95;1591425;89;21101;-64
2022/04/22 11:19:58;;;;;;;8.53;4.25;;;;;;;16.82;51.43;101696.77;1595638;89;21061;-64
2022/04/22 11:22:58;;;;;;;7.80;4.37;;;;;;;16.78;51.43;101690.77;1593914;89;21569;-64
2022/04/22 11:25:26;;;;;;;10.85;4.22;;;;;;;16.77;51.54;101694.77;1594622;89;21070;-64
2022/04/22 11:27:55;;;;;;;8.53;4.00;;;;;;;16.75;51.58;101690.02;1606889;89;21074;-64
2022/04/22 11:30:25;;;;;;;9.43;3.80;;;;;;;16.73;51.52;101683.95;1607024;89;21547;-64
2022/04/22 11:32:55;;;;;;;15.30;4.20;;;;;;;16.72;51.54;101685.71;1607017;89;21046;-64
2022/04/22 11:35:23;;;;;;;9.48;4.28;;;;;;;16.71;51.49;101686.60;1550880;92;21541;-63
2022/04/22 11:38:01;;;;;;;10.13;4.22;;;;;;;16.70;51.40;101686.66;1606964;88;21089;-64
2022/04/22 11:40:28;;;;;;;12.68;4.20;;;;;;;16.67;51.44;101684.15;1607101;89;21022;-63
2022/04/22 11:42:59;;;;;;;9.20;4.37;;;;;;;16.61;51.46;101682.55;1606832;89;21558;-63
2022/04/22 11:45:26;;;;;;;9.18;4.37;;;;;;;16.56;51.56;101682.30;1607313;89;21026;-63
2022/04/22 11:47:55;;;;;;;9.23;3.60;;;;;;;16.52;51.61;101678.92;1611753;88;21133;-63
2022/04/22 11:50:24;;;;;;;9.25;3.77;;;;;;;16.48;51.86;101675.95;1614191;88;21143;-63
2022/04/22 11:52:56;;;;;;;8.13;3.98;;;;;;;16.45;51.90;101677.34;1614294;89;21581;-64
2022/04/22 11:55:24;;;;;;;10.70;4.20;;;;;;;16.43;52.11;101676.54;1622724;88;21625;-65
2022/04/22 11:57:50;;;;;;;11.33;4.03;;;;;;;16.43;52.14;101676.98;1623851;88;21250;-64
2022/04/22 12:05:53;;;;;;;14.25;5.00;;;;;;;16.46;52.04;101661.14;1723105;82;21024;-65
2022/04/22 12:08:19;;;;;;;9.35;4.42;;;;;;;16.47;52.05;101657.59;1723507;83;21103;-63
2022/04/22 12:10:49;;;;;;;10.35;4.03;;;;;;;16.48;51.97;101654.07;1723197;83;21547;-63
2022/04/22 12:13:16;;;;;;;5.80;3.90;;;;;;;16.49;51.93;101659.71;1723235;83;20999;-64
2022/04/22 12:15:48;;;;;;;10.28;5.00;;;;;;;16.49;51.96;101653.14;1723270;82;20996;-63
2022/04/22 12:18:32;;;;;;;9.50;4.15;;;;;;;16.51;51.89;101660.11;1723265;83;21110;-63
2022/04/22 12:21:00;;;;;;;8.05;4.30;;;;;;;16.52;51.79;101658.35;1698802;84;21059;-63
2022/04/22 12:23:38;;;;;;;8.25;4.08;;;;;;;16.53;51.87;101661.37;1698558;84;21051;-62
2022/04/22 12:26:19;;;;;;;9.93;4.50;;;;;;;16.53;51.70;101653.48;1698772;84;21035;-63
2022/04/22 12:29:09;;;;;;;9.75;4.90;;;;;;;16.51;51.77;101653.98;1697631;84;21618;-63
2022/04/22 12:31:41;;;;;;;11.88;4.83;;;;;;;16.49;51.83;101654.45;1698744;84;21079;-63
2022/04/22 12:34:10;;;;;;;12.23;4.90;;;;;;;16.44;51.97;101657.70;1698897;84;21083;-63
2022/04/22 12:36:56;;;;;;;12.93;4.55;;;;;;;16.41;52.04;101655.16;1698846;84;20995;-64
2022/04/22 12:39:42;;;;;;;7.08;3.83;;;;;;;16.37;52.03;101645.66;1698828;84;21098;-65
2022/04/22 12:42:22;;;;;;;10.85;4.90;;;;;;;16.33;52.30;101646.66;1669968;85;21062;-63
2022/04/22 12:53:49;;;;;;;12.23;4.53;;;;;;;16.15;52.90;101635.84;1638392;87;21096;-64
2022/04/22 12:56:16;;;;;;;9.78;4.22;;;;;;;16.12;52.99;101631.98;1638691;87;21085;-64
2022/04/22 12:58:53;;;;;;;10.53;5.10;;;;;;;16.11;52.96;101633.34;1627303;87;21565;-64